Time;durP1;ratioP1;P1;durP2;ratioP2;P2;SDS_P1;SDS_P2;PMS_P1;PMS_P2;Temp;Humidity;BMP_temperature;BMP_pressure;BME280_temperature;BME280_humidity;BME280_pressure;Samples;Min_cycle;Max_cycle;Signal;HPM_P1;HPM_P2
2024/03/24 00:00:09;;;;;;;4.10;3.70;;;8.70;99.90;;;;;;4976005;28;20699;-73
2024/03/24 00:02:36;;;;;;;5.13;4.35;;;8.70;99.90;;;;;;4959788;28;20474;-73
2024/03/24 00:05:03;;;;;;;5.20;4.38;;;8.70;99.90;;;;;;4975962;28;20236;-73
2024/03/24 00:07:29;;;;;;;5.43;4.60;;;8.70;99.90;;;;;;4976133;28;20254;-74
2024/03/24 00:09:56;;;;;;;5.57;4.00;;;8.70;99.90;;;;;;4980209;28;20223;-74
2024/03/24 00:12:22;;;;;;;8.15;5.43;;;8.80;99.90;;;;;;4976129;28;20490;-73
2024/03/24 00:14:49;;;;;;;6.03;3.73;;;8.70;99.90;;;;;;4975929;28;20223;-73
2024/03/24 00:17:15;;;;;;;4.93;4.38;;;8.80;99.90;;;;;;4975582;28;20463;-73
2024/03/24 00:19:43;;;;;;;4.60;4.22;;;8.70;99.90;;;;;;4975918;28;20251;-73
2024/03/24 00:22:09;;;;;;;6.45;3.92;;;8.70;99.90;;;;;;4975358;28;20227;-73
2024/03/24 00:24:36;;;;;;;4.83;4.00;;;8.80;99.90;;;;;;4975867;28;20569;-73
2024/03/24 00:27:03;;;;;;;4.30;3.90;;;8.80;99.90;;;;;;4974400;28;20470;-73
2024/03/24 00:29:31;;;;;;;6.30;4.25;;;8.70;99.90;;;;;;4975566;28;20231;-73
2024/03/24 00:31:57;;;;;;;5.00;3.67;;;8.70;99.90;;;;;;4975408;28;20235;-74
2024/03/24 00:34:24;;;;;;;6.50;4.20;;;8.80;99.90;;;;;;4975592;28;20231;-73
2024/03/24 00:36:54;;;;;;;5.85;4.07;;;8.80;99.90;;;;;;4975044;28;20507;-73
2024/03/24 00:39:21;;;;;;;5.07;4.22;;;8.80;99.90;;;;;;4975842;28;20227;-73
2024/03/24 00:41:47;;;;;;;5.75;4.03;;;8.80;99.90;;;;;;4975753;28;20239;-74
2024/03/24 00:44:17;;;;;;;5.10;3.37;;;8.80;99.90;;;;;;4975046;28;20219;-73
2024/03/24 00:46:43;;;;;;;3.50;2.88;;;8.80;99.90;;;;;;4975563;28;20478;-74
2024/03/24 00:49:10;;;;;;;4.13;3.73;;;8.80;99.90;;;;;;4974890;28;20227;-74
2024/03/24 00:51:36;;;;;;;3.90;3.55;;;8.80;99.90;;;;;;4975606;28;20467;-73
2024/03/24 00:54:07;;;;;;;6.27;3.70;;;8.80;99.90;;;;;;4974871;28;20235;-74
2024/03/24 00:56:33;;;;;;;4.88;4.10;;;8.80;99.90;;;;;;4975257;28;20493;-73
2024/03/24 00:59:00;;;;;;;5.23;4.67;;;8.80;99.90;;;;;;4974779;28;20673;-74
2024/03/24 01:01:26;;;;;;;3.97;3.30;;;8.80;99.90;;;;;;4975245;28;20475;-74
2024/03/24 01:03:53;;;;;;;5.03;4.13;;;8.80;99.90;;;;;;4973893;28;20235;-73
2024/03/24 01:06:19;;;;;;;4.47;4.07;;;8.90;99.90;;;;;;4974830;28;20464;-73
2024/03/24 01:08:46;;;;;;;5.00;4.40;;;8.90;99.90;;;;;;4974923;28;20233;-73
2024/03/24 01:11:13;;;;;;;5.13;3.50;;;8.90;99.90;;;;;;4999370;28;20461;-73
2024/03/24 01:13:40;;;;;;;3.65;3.30;;;8.90;99.90;;;;;;5014280;28;20545;-73
2024/03/24 01:16:06;;;;;;;3.40;2.97;;;8.90;99.90;;;;;;5013356;28;20233;-73
2024/03/24 01:18:33;;;;;;;3.50;3.15;;;8.90;99.90;;;;;;4994658;28;20226;-73
2024/03/24 01:20:59;;;;;;;5.10;3.33;;;8.90;99.90;;;;;;4993897;28;20227;-73
2024/03/24 01:23:26;;;;;;;3.93;3.00;;;8.90;99.90;;;;;;4994124;28;20228;-73
2024/03/24 01:25:52;;;;;;;3.60;3.05;;;8.80;99.90;;;;;;4994330;28;20470;-73
2024/03/24 01:28:20;;;;;;;3.97;3.40;;;8.90;99.90;;;;;;4993563;28;20226;-73
2024/03/24 01:30:46;;;;;;;4.03;3.25;;;8.80;99.90;;;;;;4994082;28;20469;-73
2024/03/24 01:33:13;;;;;;;6.10;3.50;;;8.90;99.90;;;;;;4993597;28;20543;-73
2024/03/24 01:35:45;;;;;;;3.30;3.10;;;8.80;99.90;;;;;;4994070;28;20481;-73
2024/03/24 01:38:12;;;;;;;3.22;2.88;;;8.80;99.90;;;;;;4993253;28;20218;-73
2024/03/24 01:40:46;;;;;;;3.75;3.45;;;8.80;99.90;;;;;;4993993;28;20222;-74
2024/03/24 01:43:12;;;;;;;3.50;3.20;;;8.70;99.90;;;;;;4993736;28;20219;-72
2024/03/24 01:45:40;;;;;;;3.65;2.90;;;8.70;99.90;;;;;;4993764;28;20237;-73
2024/03/24 01:48:08;;;;;;;3.78;3.40;;;8.70;99.90;;;;;;4993282;28;20233;-73
2024/03/24 01:50:34;;;;;;;3.25;2.95;;;8.70;99.90;;;;;;4993884;28;20223;-73
2024/03/24 01:53:02;;;;;;;3.67;3.38;;;8.70;99.90;;;;;;4987405;28;20549;-73
2024/03/24 01:55:28;;;;;;;3.40;3.10;;;8.60;99.90;;;;;;4974451;28;20223;-73
2024/03/24 01:57:58;;;;;;;5.37;4.27;;;8.60;99.90;;;;;;4974332;28;20219;-73
2024/03/24 02:00:24;;;;;;;4.45;3.28;;;8.50;99.90;;;;;;4973873;28;20466;-73
2024/03/24 02:02:52;;;;;;;4.32;3.70;;;8.50;99.90;;;;;;4974317;28;20215;-73
2024/03/24 02:05:25;;;;;;;4.88;3.60;;;8.40;99.90;;;;;;4973895;28;20231;-74
2024/03/24 02:07:52;;;;;;;4.28;3.88;;;8.40;99.90;;;;;;4974181;28;20223;-73
2024/03/24 02:10:18;;;;;;;5.32;3.95;;;8.30;99.90;;;;;;4984089;28;20225;-74
2024/03/24 02:12:45;;;;;;;6.40;4.55;;;8.40;99.90;;;;;;5013001;28;20217;-73
2024/03/24 02:15:12;;;;;;;4.65;3.78;;;8.40;99.90;;;;;;5012526;28;20222;-74
2024/03/24 02:17:39;;;;;;;4.45;3.20;;;8.40;99.90;;;;;;5001136;28;20277;-73
2024/03/24 02:20:08;;;;;;;3.90;3.40;;;8.40;99.90;;;;;;4993241;28;20222;-73
2024/03/24 02:22:38;;;;;;;3.90;3.58;;;8.40;99.90;;;;;;4993475;28;20223;-73
2024/03/24 02:25:04;;;;;;;5.15;4.43;;;8.40;99.90;;;;;;4993084;28;20226;-74
2024/03/24 02:27:31;;;;;;;4.07;3.67;;;8.40;99.90;;;;;;4993415;28;20281;-73
2024/03/24 02:29:57;;;;;;;4.90;4.00;;;8.30;99.90;;;;;;4993280;28;20234;-74
2024/03/24 02:32:24;;;;;;;3.73;3.30;;;8.30;99.90;;;;;;4993068;28;20218;-72
2024/03/24 02:34:50;;;;;;;4.10;3.80;;;8.30;99.90;;;;;;4993650;28;20477;-72
2024/03/24 02:37:17;;;;;;;4.10;3.67;;;8.30;99.90;;;;;;4993125;28;20227;-73
2024/03/24 02:39:44;;;;;;;5.13;4.65;;;8.20;99.90;;;;;;4993406;28;20470;-73
2024/03/24 02:42:11;;;;;;;4.40;4.10;;;8.20;99.90;;;;;;4993043;28;20293;-73
2024/03/24 02:44:37;;;;;;;7.97;5.07;;;8.20;99.90;;;;;;4993449;28;20222;-73
2024/03/24 02:47:05;;;;;;;4.85;4.45;;;8.20;99.90;;;;;;4993045;28;20306;-73
2024/03/24 02:49:31;;;;;;;4.75;4.35;;;8.20;99.90;;;;;;4993244;28;20227;-73
2024/03/24 02:51:58;;;;;;;5.03;3.75;;;8.10;99.90;;;;;;4996754;28;20230;-73
2024/03/24 02:54:24;;;;;;;4.60;4.13;;;8.20;99.90;;;;;;4979096;28;20230;-73
2024/03/24 02:56:52;;;;;;;4.97;4.47;;;8.20;99.90;;;;;;4977535;28;20223;-73
2024/03/24 02:59:18;;;;;;;4.03;3.65;;;8.20;99.90;;;;;;4977146;28;20474;-73
2024/03/24 03:01:45;;;;;;;4.17;3.77;;;8.20;99.90;;;;;;4977727;28;20234;-72
2024/03/24 03:04:13;;;;;;;5.70;4.47;;;8.20;99.90;;;;;;4995506;28;20553;-73
2024/03/24 03:06:40;;;;;;;4.60;3.85;;;8.20;99.90;;;;;;4996016;28;20310;-73
2024/03/24 03:09:08;;;;;;;4.70;4.20;;;8.20;99.90;;;;;;4996275;28;20567;-73
2024/03/24 03:11:35;;;;;;;5.80;4.80;;;8.20;99.90;;;;;;4996085;28;20265;-73
2024/03/24 03:14:02;;;;;;;5.75;4.30;;;8.20;99.90;;;;;;4995654;28;20219;-73
2024/03/24 03:16:29;;;;;;;5.40;4.70;;;8.20;99.90;;;;;;4995161;28;20234;-73
2024/03/24 03:18:55;;;;;;;4.72;4.25;;;8.20;99.90;;;;;;4996516;28;20222;-73
2024/03/24 03:21:24;;;;;;;4.50;4.07;;;8.10;99.90;;;;;;4996128;28;20234;-73
2024/03/24 03:23:50;;;;;;;4.30;3.90;;;8.20;99.90;;;;;;4996620;28;20245;-73
2024/03/24 03:26:18;;;;;;;4.40;4.00;;;8.10;99.90;;;;;;4995936;28;20223;-73
2024/03/24 03:28:44;;;;;;;4.60;4.20;;;8.10;99.90;;;;;;4996538;28;20231;-73
2024/03/24 03:31:12;;;;;;;7.77;4.70;;;8.10;99.90;;;;;;4996065;28;20223;-74
2024/03/24 03:33:38;;;;;;;6.32;4.25;;;8.10;99.90;;;;;;4996378;28;20473;-74
2024/03/24 03:36:06;;;;;;;4.17;3.87;;;8.10;99.90;;;;;;4996346;28;20223;-73
2024/03/24 03:38:32;;;;;;;5.70;4.05;;;8.10;99.90;;;;;;4995995;28;20458;-73
2024/03/24 03:40:59;;;;;;;4.90;4.17;;;8.10;99.90;;;;;;4996287;28;20617;-73
2024/03/24 03:43:26;;;;;;;4.22;3.83;;;8.10;99.90;;;;;;4995754;28;20810;-72
2024/03/24 03:45:53;;;;;;;5.25;4.75;;;8.00;99.90;;;;;;4995966;28;20269;-74
2024/03/24 03:48:21;;;;;;;4.32;3.90;;;8.00;99.90;;;;;;4995651;28;20226;-73
2024/03/24 03:50:48;;;;;;;4.97;4.15;;;8.00;99.90;;;;;;4996128;28;20229;-74
2024/03/24 03:53:17;;;;;;;4.75;3.50;;;7.90;99.90;;;;;;4995467;28;20226;-73
2024/03/24 03:55:48;;;;;;;5.95;4.13;;;7.90;99.90;;;;;;4995976;28;20214;-73
2024/03/24 03:58:14;;;;;;;4.40;4.00;;;7.90;99.90;;;;;;4995341;28;20227;-73
2024/03/24 04:00:43;;;;;;;4.70;3.87;;;7.90;99.90;;;;;;4995716;28;20222;-73
2024/03/24 04:03:09;;;;;;;4.53;4.13;;;7.90;99.90;;;;;;4995801;28;20482;-73
2024/03/24 04:05:38;;;;;;;4.47;4.07;;;7.90;99.90;;;;;;4995397;28;20219;-73
2024/03/24 04:08:05;;;;;;;5.63;4.22;;;7.80;99.90;;;;;;4995548;28;20485;-73
2024/03/24 04:10:32;;;;;;;7.20;6.03;;;7.80;99.90;;;;;;4995195;28;20238;-73
2024/03/24 04:12:58;;;;;;;5.70;4.50;;;7.70;99.90;;;;;;4995521;28;20223;-73
2024/03/24 04:15:25;;;;;;;5.87;4.10;;;7.70;99.90;;;;;;4995003;28;20223;-74
2024/03/24 04:17:51;;;;;;;6.55;4.93;;;7.70;99.90;;;;;;4995473;28;20478;-74
2024/03/24 04:20:18;;;;;;;8.20;5.77;;;7.60;99.90;;;;;;4995121;28;20226;-74
2024/03/24 04:22:46;;;;;;;4.32;3.92;;;7.70;99.90;;;;;;4995499;28;20470;-73
2024/03/24 04:25:13;;;;;;;4.50;4.10;;;7.60;99.90;;;;;;4995101;28;20300;-73
2024/03/24 04:27:39;;;;;;;6.43;4.63;;;7.60;99.90;;;;;;4995138;28;20750;-73
2024/03/24 04:30:07;;;;;;;5.63;4.20;;;7.50;99.90;;;;;;4995187;28;20230;-73
2024/03/24 04:32:33;;;;;;;7.57;4.50;;;7.60;99.90;;;;;;4994870;28;20461;-72
2024/03/24 04:35:02;;;;;;;6.87;4.43;;;7.60;99.90;;;;;;4995145;28;20214;-72
2024/03/24 04:37:28;;;;;;;5.30;4.78;;;7.60;99.90;;;;;;4994684;28;20547;-72
2024/03/24 04:39:56;;;;;;;5.38;4.88;;;7.50;99.90;;;;;;4995085;28;20246;-72
2024/03/24 04:42:23;;;;;;;7.85;6.35;;;7.50;99.90;;;;;;4994562;28;20230;-73
2024/03/24 04:44:50;;;;;;;4.45;4.10;;;7.50;99.90;;;;;;4995066;28;20230;-72
2024/03/24 04:47:17;;;;;;;4.97;4.53;;;7.50;99.90;;;;;;4994521;28;20248;-73
2024/03/24 04:49:44;;;;;;;5.22;4.80;;;7.50;99.90;;;;;;4994942;28;20246;-73
2024/03/24 04:52:10;;;;;;;6.60;5.03;;;7.50;99.90;;;;;;4995013;28;20554;-72
2024/03/24 04:54:37;;;;;;;5.33;4.10;;;7.50;99.90;;;;;;4994372;28;20214;-72
2024/03/24 04:57:05;;;;;;;4.72;4.35;;;7.40;99.90;;;;;;4994662;28;20975;-73
2024/03/24 04:59:32;;;;;;;5.38;4.72;;;7.50;99.90;;;;;;4994324;28;20288;-72
2024/03/24 05:01:58;;;;;;;4.53;4.15;;;7.50;99.90;;;;;;4994678;28;20222;-73
2024/03/24 05:04:25;;;;;;;4.93;4.33;;;7.50;99.90;;;;;;4994139;28;20606;-73
2024/03/24 05:06:51;;;;;;;5.40;4.90;;;7.40;99.90;;;;;;4994571;28;20481;-72
2024/03/24 05:09:22;;;;;;;5.07;4.68;;;7.40;99.90;;;;;;4993969;28;20288;-73
2024/03/24 05:11:48;;;;;;;5.70;5.07;;;7.30;99.90;;;;;;4994458;28;20219;-72
2024/03/24 05:14:16;;;;;;;5.90;5.40;;;7.40;99.90;;;;;;4993951;28;20230;-72
2024/03/24 05:16:42;;;;;;;5.30;4.72;;;7.40;99.90;;;;;;4994019;28;20473;-72
2024/03/24 05:19:09;;;;;;;5.03;4.37;;;7.40;99.90;;;;;;4994416;28;20526;-72
2024/03/24 05:21:37;;;;;;;7.55;5.38;;;7.40;99.90;;;;;;4993741;28;20476;-73
2024/03/24 05:24:05;;;;;;;7.07;4.60;;;7.40;99.90;;;;;;4994320;28;20225;-72
2024/03/24 05:26:31;;;;;;;5.57;5.03;;;7.40;99.90;;;;;;4993998;28;20354;-73
2024/03/24 05:29:00;;;;;;;5.63;5.18;;;7.40;99.90;;;;;;4994095;28;20715;-72
2024/03/24 05:31:27;;;;;;;6.38;4.43;;;7.30;99.90;;;;;;4993591;28;20699;-72
2024/03/24 05:33:54;;;;;;;5.20;4.80;;;7.40;99.90;;;;;;4994153;28;20227;-73
2024/03/24 05:36:20;;;;;;;6.70;4.32;;;7.40;99.90;;;;;;4993607;28;20230;-73
2024/03/24 05:38:47;;;;;;;7.70;4.43;;;7.40;99.90;;;;;;4994170;28;20710;-72
2024/03/24 05:41:15;;;;;;;5.47;4.35;;;7.40;99.90;;;;;;4994052;28;20469;-72
2024/03/24 05:43:42;;;;;;;4.75;4.45;;;7.40;99.90;;;;;;4993500;28;20222;-73
2024/03/24 05:46:08;;;;;;;4.63;4.22;;;7.40;99.90;;;;;;4993904;28;20246;-72
2024/03/24 05:48:37;;;;;;;5.93;5.43;;;7.40;99.90;;;;;;4993642;28;20230;-73
2024/03/24 05:51:04;;;;;;;4.88;4.45;;;7.50;99.90;;;;;;4993806;28;20465;-73
2024/03/24 05:53:32;;;;;;;6.30;4.72;;;7.50;99.90;;;;;;4993476;28;20227;-73
2024/03/24 05:55:59;;;;;;;5.20;4.70;;;7.60;99.90;;;;;;4993944;28;20227;-72
2024/03/24 05:58:26;;;;;;;5.40;4.90;;;7.60;99.90;;;;;;4993373;28;20238;-72
2024/03/24 06:00:52;;;;;;;4.63;3.80;;;7.70;99.90;;;;;;4993925;28;20671;-72
2024/03/24 06:03:19;;;;;;;4.53;4.13;;;7.60;99.90;;;;;;4993735;28;20234;-73
2024/03/24 06:05:56;;;;;;;8.13;5.03;;;7.70;99.90;;;;;;4993160;28;20454;-73
2024/03/24 06:08:23;;;;;;;5.53;4.43;;;7.70;99.90;;;;;;4993122;28;20345;-73
2024/03/24 06:10:49;;;;;;;5.57;4.40;;;7.80;99.90;;;;;;4993743;28;20236;-73
2024/03/24 06:13:16;;;;;;;6.50;4.90;;;7.70;99.90;;;;;;4993839;28;20223;-73
2024/03/24 06:15:42;;;;;;;6.05;4.05;;;7.70;99.90;;;;;;4993015;28;20458;-73
2024/03/24 06:18:11;;;;;;;5.10;3.58;;;7.70;99.90;;;;;;4993693;28;20230;-74
2024/03/24 06:20:38;;;;;;;4.55;4.07;;;7.70;99.90;;;;;;4993087;28;20227;-73
2024/03/24 06:23:07;;;;;;;3.95;3.65;;;7.60;99.90;;;;;;4993820;28;20215;-74
2024/03/24 06:25:33;;;;;;;5.25;4.85;;;7.60;99.90;;;;;;4994294;28;20249;-73
2024/03/24 06:28:01;;;;;;;6.63;4.85;;;7.50;99.90;;;;;;4997451;28;20222;-73
2024/03/24 06:30:28;;;;;;;7.18;4.72;;;7.60;99.90;;;;;;4997049;28;20234;-73
2024/03/24 06:32:55;;;;;;;4.97;4.30;;;7.60;99.90;;;;;;4997680;28;20218;-73
2024/03/24 06:35:24;;;;;;;4.60;4.20;;;7.70;99.90;;;;;;4997359;28;20222;-73
2024/03/24 06:37:51;;;;;;;4.97;3.70;;;7.70;99.90;;;;;;4997119;28;20231;-73
2024/03/24 06:40:18;;;;;;;4.55;4.15;;;7.80;99.90;;;;;;4997179;28;20711;-73
2024/03/24 06:42:49;;;;;;;4.28;3.88;;;7.80;99.90;;;;;;4996873;28;20237;-73
2024/03/24 06:45:15;;;;;;;4.00;3.60;;;7.90;99.90;;;;;;4997343;28;20230;-73
2024/03/24 06:47:42;;;;;;;4.82;4.15;;;7.90;99.90;;;;;;4996666;28;20249;-73
2024/03/24 06:50:08;;;;;;;5.20;4.70;;;7.90;99.90;;;;;;4997109;28;20241;-73
2024/03/24 06:52:37;;;;;;;12.07;9.27;;;8.00;99.90;;;;;;4996840;28;20223;-73
2024/03/24 06:55:03;;;;;;;6.80;5.82;;;8.00;99.90;;;;;;4997017;28;20689;-73
2024/03/24 06:57:31;;;;;;;9.90;6.68;;;8.10;99.90;;;;;;4996531;28;20576;-73
2024/03/24 07:00:00;;;;;;;7.00;6.00;;;8.20;99.90;;;;;;4997008;28;20223;-73
2024/03/24 07:02:27;;;;;;;7.38;5.95;;;8.20;99.90;;;;;;4996858;28;20218;-73
2024/03/24 07:04:53;;;;;;;8.60;7.13;;;8.30;99.90;;;;;;4996411;28;20528;-73
2024/03/24 07:07:20;;;;;;;6.43;5.83;;;8.30;99.90;;;;;;4996928;28;20222;-73
2024/03/24 07:09:46;;;;;;;9.15;8.10;;;8.30;99.90;;;;;;4996289;28;20470;-73
2024/03/24 07:12:13;;;;;;;9.90;7.10;;;8.40;99.90;;;;;;4996888;28;20218;-73
2024/03/24 07:14:40;;;;;;;6.47;4.18;;;8.40;99.90;;;;;;4996299;28;20249;-73
2024/03/24 07:17:07;;;;;;;4.75;3.35;;;8.40;99.90;;;;;;4996542;28;20254;-73
2024/03/24 07:19:33;;;;;;;5.15;3.85;;;8.50;99.90;;;;;;4996114;28;20233;-73
2024/03/24 07:22:00;;;;;;;4.20;3.60;;;8.50;99.90;;;;;;4996664;28;20223;-73
2024/03/24 07:24:26;;;;;;;3.30;3.00;;;8.60;99.90;;;;;;4996443;28;20473;-73
2024/03/24 07:26:53;;;;;;;4.60;3.03;;;8.60;99.90;;;;;;4995986;28;20230;-73
2024/03/24 07:29:19;;;;;;;4.57;3.67;;;8.70;99.90;;;;;;4996074;28;20544;-73
2024/03/24 07:31:47;;;;;;;11.23;7.40;;;8.70;99.90;;;;;;4995690;28;20233;-73
2024/03/24 07:34:19;;;;;;;9.85;7.47;;;8.80;99.90;;;;;;4996353;28;20478;-73
2024/03/24 07:36:46;;;;;;;8.38;7.05;;;8.80;99.90;;;;;;4995419;28;20227;-73
2024/03/24 07:39:12;;;;;;;6.90;6.20;;;8.80;99.90;;;;;;4996135;28;20226;-73
2024/03/24 07:41:39;;;;;;;4.17;3.87;;;8.90;99.90;;;;;;4995802;28;20223;-73
2024/03/24 07:44:05;;;;;;;5.22;3.85;;;9.10;99.90;;;;;;4996108;28;20469;-73
2024/03/24 07:46:32;;;;;;;3.80;3.07;;;9.10;99.90;;;;;;4995849;28;20222;-72
2024/03/24 07:48:59;;;;;;;4.60;3.08;;;9.20;99.90;;;;;;4995919;28;21173;-73
2024/03/24 07:51:27;;;;;;;2.85;2.65;;;9.30;99.90;;;;;;4996002;28;20617;-72
2024/03/24 07:53:53;;;;;;;5.60;3.53;;;9.40;99.90;;;;;;4995460;28;20289;-73
2024/03/24 07:56:20;;;;;;;4.28;3.05;;;9.40;99.90;;;;;;4995885;28;20314;-73
2024/03/24 07:58:46;;;;;;;3.50;3.20;;;9.50;99.90;;;;;;4995176;28;20231;-73
2024/03/24 08:01:13;;;;;;;4.53;4.13;;;9.60;99.90;;;;;;4996017;28;20220;-73
2024/03/24 08:03:39;;;;;;;4.55;3.15;;;9.70;99.90;;;;;;4995262;28;20474;-74
2024/03/24 08:06:07;;;;;;;3.83;3.07;;;9.90;99.90;;;;;;4995662;28;20562;-74
2024/03/24 08:08:33;;;;;;;2.85;2.65;;;10.00;99.90;;;;;;4995816;28;20466;-73
2024/03/24 08:11:00;;;;;;;4.63;3.43;;;10.10;99.90;;;;;;4995109;28;20695;-73
2024/03/24 08:13:26;;;;;;;2.53;2.33;;;10.20;99.90;;;;;;4995458;28;20478;-73
2024/03/24 08:15:54;;;;;;;3.60;3.30;;;10.30;99.90;;;;;;4995115;28;20563;-72
2024/03/24 08:18:20;;;;;;;3.97;3.42;;;10.50;99.90;;;;;;4995390;28;20470;-73
2024/03/24 08:20:52;;;;;;;3.60;3.10;;;10.50;99.90;;;;;;4995050;28;20226;-73
2024/03/24 08:23:20;;;;;;;4.10;3.38;;;10.60;99.90;;;;;;4995544;28;20838;-73
2024/03/24 08:25:48;;;;;;;3.22;2.80;;;10.60;99.90;;;;;;4995084;28;20598;-73
2024/03/24 08:28:14;;;;;;;4.97;2.90;;;10.60;99.90;;;;;;4995309;28;20739;-73
2024/03/24 08:30:42;;;;;;;3.30;2.78;;;10.60;99.90;;;;;;4994846;28;20238;-73
2024/03/24 08:33:08;;;;;;;3.17;2.97;;;10.70;99.90;;;;;;4995230;28;20222;-73
2024/03/24 08:35:35;;;;;;;3.33;3.08;;;10.70;99.90;;;;;;4995171;28;20301;-74
2024/03/24 08:38:01;;;;;;;7.45;3.80;;;10.70;99.90;;;;;;4995019;28;20553;-72
2024/03/24 08:40:30;;;;;;;3.10;2.73;;;10.80;99.90;;;;;;4995144;28;20226;-73
2024/03/24 08:42:55;;;;;;;3.15;2.95;;;10.90;99.90;;;;;;4994527;28;20466;-72
2024/03/24 08:45:23;;;;;;;4.00;3.60;;;10.90;99.90;;;;;;4995047;28;20233;-72
2024/03/24 08:47:49;;;;;;;6.22;4.63;;;10.90;99.90;;;;;;4993727;28;20478;-74
2024/03/24 08:50:20;;;;;;;4.78;4.07;;;10.90;99.90;;;;;;4994983;28;20234;-73
2024/03/24 08:52:46;;;;;;;4.15;3.75;;;11.00;99.90;;;;;;4994694;28;20590;-73
2024/03/24 08:55:13;;;;;;;3.77;3.13;;;10.90;99.90;;;;;;4994689;28;20301;-73
2024/03/24 08:57:41;;;;;;;3.50;3.22;;;11.00;99.90;;;;;;4994481;28;20505;-73
2024/03/24 09:00:09;;;;;;;3.47;2.53;;;11.00;99.90;;;;;;4994898;28;20556;-73
2024/03/24 09:02:35;;;;;;;5.47;4.95;;;11.00;99.90;;;;;;4994857;28;20542;-73
2024/03/24 09:05:02;;;;;;;6.63;5.95;;;11.00;99.90;;;;;;4994155;28;20273;-73
2024/03/24 09:07:29;;;;;;;7.32;3.70;;;11.10;99.90;;;;;;4994731;28;20289;-73
2024/03/24 09:09:56;;;;;;;4.93;3.23;;;11.10;99.90;;;;;;4994045;28;20235;-74
2024/03/24 09:12:22;;;;;;;2.67;2.47;;;11.20;99.90;;;;;;4994675;28;20474;-73
2024/03/24 09:14:50;;;;;;;2.73;2.53;;;11.30;99.90;;;;;;4993912;28;20226;-74
2024/03/24 09:17:16;;;;;;;3.08;2.83;;;11.30;99.90;;;;;;4994470;28;20478;-73
2024/03/24 09:19:43;;;;;;;2.90;2.57;;;11.30;99.90;;;;;;4994045;28;20245;-73
2024/03/24 09:22:09;;;;;;;2.92;2.58;;;11.40;99.90;;;;;;4994353;28;20470;-74
2024/03/24 09:24:36;;;;;;;4.10;2.33;;;11.30;99.90;;;;;;4994202;28;20233;-73
2024/03/24 09:27:02;;;;;;;5.25;2.58;;;11.20;99.90;;;;;;4993896;28;20469;-73
2024/03/24 09:29:30;;;;;;;3.47;3.10;;;11.10;99.90;;;;;;4994130;28;20581;-75
2024/03/24 09:31:58;;;;;;;5.38;4.38;;;11.10;99.90;;;;;;4993854;28;20223;-74
2024/03/24 09:34:25;;;;;;;4.60;4.05;;;11.00;99.90;;;;;;4994215;28;20277;-73
2024/03/24 09:36:51;;;;;;;6.47;3.85;;;10.80;99.90;;;;;;4993585;28;20235;-72
2024/03/24 09:39:18;;;;;;;5.05;4.63;;;10.70;99.90;;;;;;4994336;28;20257;-73
2024/03/24 09:41:45;;;;;;;6.90;5.50;;;10.80;99.90;;;;;;4993697;28;20227;-73
2024/03/24 09:44:13;;;;;;;3.92;3.55;;;10.70;99.90;;;;;;4993955;28;20313;-73
2024/03/24 09:46:41;;;;;;;3.50;3.20;;;10.70;99.90;;;;;;4993965;28;20238;-74
2024/03/24 09:49:14;;;;;;;3.10;2.78;;;10.70;99.90;;;;;;4993906;28;20218;-74
2024/03/24 09:51:40;;;;;;;4.20;2.63;;;10.70;99.90;;;;;;4993952;28;20575;-74
2024/03/24 09:54:10;;;;;;;3.63;2.90;;;10.80;99.90;;;;;;4993803;28;20222;-74
2024/03/24 09:56:37;;;;;;;4.07;3.42;;;10.70;99.90;;;;;;4994000;28;20309;-71
2024/03/24 09:59:05;;;;;;;3.70;3.35;;;10.60;99.90;;;;;;4993293;28;20322;-73
2024/03/24 10:01:31;;;;;;;3.75;3.03;;;10.50;99.90;;;;;;4994023;28;20564;-74
2024/03/24 10:03:58;;;;;;;4.68;3.03;;;10.30;99.90;;;;;;4993290;28;20644;-73
2024/03/24 10:06:26;;;;;;;3.92;3.50;;;10.30;99.90;;;;;;4993731;28;20241;-74
2024/03/24 10:08:53;;;;;;;3.78;3.47;;;10.10;99.90;;;;;;4993539;28;20695;-73
2024/03/24 10:11:29;;;;;;;3.47;3.20;;;10.10;99.90;;;;;;4993702;28;20269;-73
2024/03/24 10:13:58;;;;;;;5.13;4.63;;;10.10;99.90;;;;;;4993212;28;20218;-73
2024/03/24 10:16:24;;;;;;;3.67;3.22;;;10.10;99.90;;;;;;4993742;28;20231;-73
2024/03/24 10:18:52;;;;;;;4.82;3.13;;;10.00;99.90;;;;;;4993460;28;20227;-73
2024/03/24 10:21:18;;;;;;;3.72;3.40;;;9.90;99.90;;;;;;4993740;28;20222;-74
2024/03/24 10:23:47;;;;;;;3.50;3.20;;;9.80;99.90;;;;;;4993726;28;20279;-74
2024/03/24 10:26:18;;;;;;;2.63;2.42;;;9.80;99.90;;;;;;4993235;28;21040;-74
2024/03/24 10:28:45;;;;;;;3.65;3.33;;;9.70;99.90;;;;;;4993595;28;20688;-72
2024/03/24 10:31:11;;;;;;;3.47;3.17;;;9.70;99.90;;;;;;4993265;28;20293;-72
2024/03/24 10:33:39;;;;;;;3.77;2.83;;;9.70;99.90;;;;;;4993618;28;20688;-74
2024/03/24 10:36:06;;;;;;;3.35;3.05;;;9.60;99.90;;;;;;4992760;28;20482;-72
2024/03/24 10:38:34;;;;;;;2.85;2.65;;;9.60;99.90;;;;;;4993534;28;20700;-74
2024/03/24 10:41:01;;;;;;;4.03;3.55;;;9.50;99.90;;;;;;4991953;28;20230;-74
2024/03/24 10:43:28;;;;;;;4.22;3.88;;;9.40;99.90;;;;;;4993621;28;20571;-75
2024/03/24 10:45:56;;;;;;;5.15;4.70;;;9.40;99.90;;;;;;4992679;28;20230;-72
2024/03/24 10:48:29;;;;;;;4.53;4.13;;;9.40;99.90;;;;;;4993036;28;20743;-72
2024/03/24 10:50:56;;;;;;;4.05;3.58;;;9.40;99.90;;;;;;4992948;28;20281;-73
2024/03/24 10:53:26;;;;;;;3.15;2.90;;;9.40;99.90;;;;;;4993538;28;20261;-73
2024/03/24 10:55:54;;;;;;;5.32;3.10;;;9.40;99.90;;;;;;4993003;28;20238;-73
2024/03/24 10:58:23;;;;;;;4.00;3.60;;;9.50;99.90;;;;;;4993255;28;20293;-74
2024/03/24 11:00:50;;;;;;;4.50;3.13;;;9.50;99.90;;;;;;4993274;28;20230;-74
2024/03/24 11:03:19;;;;;;;3.25;3.05;;;9.50;99.90;;;;;;4993182;28;20621;-73
2024/03/24 11:05:47;;;;;;;4.70;4.30;;;9.60;99.90;;;;;;4993297;28;20237;-73
2024/03/24 11:08:15;;;;;;;4.30;3.90;;;9.60;99.90;;;;;;4992804;28;20736;-73
2024/03/24 11:10:43;;;;;;;5.63;4.82;;;9.60;99.90;;;;;;4993290;28;20565;-72
2024/03/24 11:13:12;;;;;;;4.55;4.07;;;9.60;99.90;;;;;;4995897;28;20242;-74
2024/03/24 11:15:41;;;;;;;4.80;4.35;;;9.70;99.90;;;;;;4996538;28;20223;-74
2024/03/24 11:18:18;;;;;;;3.80;3.45;;;9.70;99.90;;;;;;4996174;28;20502;-73
2024/03/24 11:20:44;;;;;;;5.70;4.13;;;9.70;99.90;;;;;;4996593;28;20680;-74
2024/03/24 11:23:17;;;;;;;6.25;5.65;;;9.70;99.90;;;;;;4996153;28;20270;-73
2024/03/24 11:25:48;;;;;;;5.75;5.25;;;9.70;99.90;;;;;;4996664;28;20227;-74
2024/03/24 11:28:40;;;;;;;5.32;4.35;;;9.80;99.90;;;;;;4995960;28;20558;-74
2024/03/24 11:31:37;;;;;;;5.68;4.47;;;9.70;99.90;;;;;;4996138;28;20238;-74
2024/03/24 11:34:06;;;;;;;4.55;4.15;;;9.80;99.90;;;;;;4995952;28;20226;-73
2024/03/24 11:36:35;;;;;;;7.45;3.45;;;9.80;99.90;;;;;;4996189;28;20238;-73
2024/03/24 11:39:05;;;;;;;5.63;4.10;;;9.80;99.90;;;;;;4995845;28;20218;-73
2024/03/24 11:41:32;;;;;;;4.20;3.80;;;9.90;99.90;;;;;;4996411;28;20261;-73
2024/03/24 11:44:01;;;;;;;4.43;4.03;;;9.90;99.90;;;;;;4995665;28;20230;-74
2024/03/24 11:46:32;;;;;;;4.35;3.95;;;9.90;99.90;;;;;;4995930;28;20285;-74
2024/03/24 11:49:00;;;;;;;5.68;3.78;;;9.90;99.90;;;;;;4995765;28;20713;-74
2024/03/24 11:51:27;;;;;;;4.32;3.92;;;9.90;99.90;;;;;;4996167;28;20246;-74
2024/03/24 11:53:55;;;;;;;4.40;4.00;;;9.80;99.90;;;;;;4995961;28;20229;-74
2024/03/24 11:56:21;;;;;;;6.88;5.28;;;9.80;99.90;;;;;;4995601;28;20289;-73
2024/03/24 11:58:52;;;;;;;5.50;5.00;;;9.90;99.90;;;;;;4995831;28;20223;-73
2024/03/24 12:01:19;;;;;;;5.25;4.35;;;9.80;99.90;;;;;;4995518;28;20277;-73
2024/03/24 12:03:48;;;;;;;4.65;4.25;;;9.80;99.90;;;;;;4995749;28;20307;-73
2024/03/24 12:06:16;;;;;;;5.35;4.95;;;9.80;99.90;;;;;;4995280;28;20257;-74
2024/03/24 12:08:45;;;;;;;5.45;4.53;;;9.80;99.90;;;;;;4995766;28;20218;-73
2024/03/24 12:11:11;;;;;;;3.78;3.47;;;9.80;99.90;;;;;;4995288;28;20222;-74
2024/03/24 12:13:39;;;;;;;4.60;4.20;;;9.80;99.90;;;;;;4995425;28;20222;-73
2024/03/24 12:16:05;;;;;;;5.30;4.60;;;9.80;99.90;;;;;;4994923;28;20281;-73
2024/03/24 12:18:33;;;;;;;4.15;3.75;;;9.90;99.90;;;;;;4995649;28;20247;-74
2024/03/24 12:21:02;;;;;;;4.10;3.70;;;9.80;99.90;;;;;;4994969;28;20211;-73
2024/03/24 12:23:29;;;;;;;4.03;3.63;;;9.80;99.90;;;;;;4993945;28;20677;-72
2024/03/24 12:25:58;;;;;;;4.10;3.40;;;9.80;99.90;;;;;;4995416;28;20618;-72
2024/03/24 12:28:25;;;;;;;4.07;3.67;;;9.80;99.90;;;;;;4994781;28;20245;-74
2024/03/24 12:30:53;;;;;;;4.22;3.90;;;9.70;99.90;;;;;;4995163;28;20227;-73
2024/03/24 12:33:20;;;;;;;4.18;3.33;;;9.80;99.90;;;;;;4994994;28;20250;-73
2024/03/24 12:35:48;;;;;;;4.57;3.90;;;9.80;99.90;;;;;;4994678;28;20222;-72
2024/03/24 12:38:17;;;;;;;3.70;3.40;;;9.80;99.90;;;;;;4994655;28;20568;-73
2024/03/24 12:40:50;;;;;;;3.97;3.55;;;9.80;99.90;;;;;;4995159;28;20227;-73
2024/03/24 12:43:19;;;;;;;3.72;3.42;;;9.90;99.90;;;;;;4994657;28;20540;-73
2024/03/24 12:45:52;;;;;;;4.10;3.72;;;9.90;99.90;;;;;;4994827;28;20706;-73
2024/03/24 12:48:19;;;;;;;3.80;3.50;;;9.90;99.90;;;;;;4994520;28;20226;-73
2024/03/24 12:50:46;;;;;;;4.88;3.85;;;9.90;99.90;;;;;;4994963;28;20314;-73
2024/03/24 12:53:25;;;;;;;4.57;4.18;;;9.90;99.90;;;;;;4994217;28;20310;-74
2024/03/24 12:55:53;;;;;;;4.00;3.70;;;10.00;99.90;;;;;;4994275;28;20318;-73